sensor_id;sensor_type;location;lat;lon;timestamp;pressure;altitude;pressure_sealevel;temperature;humidity
42289;BME280;30230;47.520;19.016;2023-08-12T00:00:55;99724.50;;;16.11;75.39
42289;BME280;30230;47.520;19.016;2023-08-12T00:02:55;99711.56;;;16.06;76.14
42289;BME280;30230;47.520;19.016;2023-08-12T00:04:56;99726.66;;;16.09;75.14
42289;BME280;30230;47.520;19.016;2023-08-12T00:06:56;99714.75;;;16.03;76.35
42289;BME280;30230;47.520;19.016;2023-08-12T00:08:57;99725.44;;;16.05;76.65
42289;BME280;30230;47.520;19.016;2023-08-12T00:10:57;99719.28;;;15.91;75.95
42289;BME280;30230;47.520;19.016;2023-08-12T00:12:57;99717.88;;;15.88;75.51
42289;BME280;30230;47.520;19.016;2023-08-12T00:14:58;99732.09;;;15.91;77.02
42289;BME280;30230;47.520;19.016;2023-08-12T00:16:59;99714.81;;;15.97;75.64
42289;BME280;30230;47.520;19.016;2023-08-12T00:18:59;99713.63;;;15.93;75.76
42289;BME280;30230;47.520;19.016;2023-08-12T00:21:00;99718.56;;;16.02;75.84
42289;BME280;30230;47.520;19.016;2023-08-12T00:23:01;99708.34;;;15.98;75.75
42289;BME280;30230;47.520;19.016;2023-08-12T00:25:01;99717.50;;;16.03;76.12
42289;BME280;30230;47.520;19.016;2023-08-12T00:27:02;99707.88;;;16.01;76.56
42289;BME280;30230;47.520;19.016;2023-08-12T00:29:02;99715.84;;;16.02;76.68
42289;BME280;30230;47.520;19.016;2023-08-12T00:31:03;99706.59;;;16.03;77.16
42289;BME280;30230;47.520;19.016;2023-08-12T00:33:04;99697.88;;;15.95;75.69
42289;BME280;30230;47.520;19.016;2023-08-12T00:35:05;99716.44;;;16.04;75.55
42289;BME280;30230;47.520;19.016;2023-08-12T00:37:05;99718.31;;;16.04;76.16
42289;BME280;30230;47.520;19.016;2023-08-12T00:39:06;99706.66;;;15.97;75.68
42289;BME280;30230;47.520;19.016;2023-08-12T00:41:06;99711.06;;;15.98;76.87
42289;BME280;30230;47.520;19.016;2023-08-12T00:43:06;99702.13;;;15.91;78.01
42289;BME280;30230;47.520;19.016;2023-08-12T00:45:10;99707.34;;;15.92;78.28
42289;BME280;30230;47.520;19.016;2023-08-12T00:47:13;99696.66;;;15.91;78.97
42289;BME280;30230;47.520;19.016;2023-08-12T00:49:15;99708.25;;;15.86;78.87
42289;BME280;30230;47.520;19.016;2023-08-12T00:51:16;99712.03;;;15.85;78.46
42289;BME280;30230;47.520;19.016;2023-08-12T00:53:17;99713.19;;;15.77;78.36
42289;BME280;30230;47.520;19.016;2023-08-12T00:55:18;99705.16;;;15.82;77.63
42289;BME280;30230;47.520;19.016;2023-08-12T00:57:18;99706.91;;;15.77;77.61
42289;BME280;30230;47.520;19.016;2023-08-12T00:59:20;99704.22;;;15.70;77.91
42289;BME280;30230;47.520;19.016;2023-08-12T01:01:20;99699.03;;;15.69;78.26
42289;BME280;30230;47.520;19.016;2023-08-12T01:03:21;99707.44;;;15.67;78.49
42289;BME280;30230;47.520;19.016;2023-08-12T01:05:21;99701.34;;;15.65;78.55
42289;BME280;30230;47.520;19.016;2023-08-12T01:07:22;99698.25;;;15.61;79.57
42289;BME280;30230;47.520;19.016;2023-08-12T01:09:22;99700.31;;;15.66;77.81
42289;BME280;30230;47.520;19.016;2023-08-12T01:13:49;99709.53;;;15.65;79.18
42289;BME280;30230;47.520;19.016;2023-08-12T01:15:52;99702.19;;;15.66;79.77
42289;BME280;30230;47.520;19.016;2023-08-12T01:17:54;99706.81;;;15.65;80.52
42289;BME280;30230;47.520;19.016;2023-08-12T01:19:56;99716.03;;;15.64;80.88
42289;BME280;30230;47.520;19.016;2023-08-12T01:22:00;99709.97;;;15.62;80.53
42289;BME280;30230;47.520;19.016;2023-08-12T01:24:01;99717.94;;;15.63;81.40
42289;BME280;30230;47.520;19.016;2023-08-12T01:26:02;99715.13;;;15.70;79.79
42289;BME280;30230;47.520;19.016;2023-08-12T01:28:03;99730.72;;;15.63;81.47
42289;BME280;30230;47.520;19.016;2023-08-12T01:30:05;99729.47;;;15.59;82.65
42289;BME280;30230;47.520;19.016;2023-08-12T01:32:14;99729.66;;;15.64;82.66
42289;BME280;30230;47.520;19.016;2023-08-12T01:34:35;99730.72;;;15.63;84.12
42289;BME280;30230;47.520;19.016;2023-08-12T01:36:39;99728.63;;;15.58;85.42
42289;BME280;30230;47.520;19.016;2023-08-12T01:38:43;99723.09;;;15.47;86.02
42289;BME280;30230;47.520;19.016;2023-08-12T01:40:45;99733.09;;;15.53;85.65
42289;BME280;30230;47.520;19.016;2023-08-12T01:42:46;99728.09;;;15.50;86.47
42289;BME280;30230;47.520;19.016;2023-08-12T01:44:48;99732.19;;;15.59;84.87
42289;BME280;30230;47.520;19.016;2023-08-12T01:46:48;99730.97;;;15.55;86.41
42289;BME280;30230;47.520;19.016;2023-08-12T01:48:49;99733.09;;;15.53;87.66
42289;BME280;30230;47.520;19.016;2023-08-12T01:50:49;99723.69;;;15.49;88.07
42289;BME280;30230;47.520;19.016;2023-08-12T01:52:50;99723.84;;;15.54;87.96
42289;BME280;30230;47.520;19.016;2023-08-12T01:54:50;99724.25;;;15.57;86.91
42289;BME280;30230;47.520;19.016;2023-08-12T01:56:51;99712.50;;;15.38;86.62
42289;BME280;30230;47.520;19.016;2023-08-12T01:58:51;99720.66;;;15.38;87.36
42289;BME280;30230;47.520;19.016;2023-08-12T02:00:52;99710.22;;;15.35;86.95
42289;BME280;30230;47.520;19.016;2023-08-12T02:02:53;99733.66;;;15.36;87.78
42289;BME280;30230;47.520;19.016;2023-08-12T02:04:53;99727.41;;;15.36;88.16
42289;BME280;30230;47.520;19.016;2023-08-12T02:06:54;99720.34;;;15.28;87.80
42289;BME280;30230;47.520;19.016;2023-08-12T02:08:56;99721.22;;;15.22;88.72
42289;BME280;30230;47.520;19.016;2023-08-12T02:10:56;99719.56;;;15.21;87.64
42289;BME280;30230;47.520;19.016;2023-08-12T02:12:56;99713.41;;;15.07;88.46
42289;BME280;30230;47.520;19.016;2023-08-12T02:14:57;99722.56;;;15.13;88.84
42289;BME280;30230;47.520;19.016;2023-08-12T02:16:57;99716.00;;;14.96;89.87
42289;BME280;30230;47.520;19.016;2023-08-12T02:18:57;99714.00;;;14.84;91.12
42289;BME280;30230;47.520;19.016;2023-08-12T02:20:58;99720.94;;;14.80;92.11
42289;BME280;30230;47.520;19.016;2023-08-12T02:22:59;99713.84;;;14.73;91.95
42289;BME280;30230;47.520;19.016;2023-08-12T02:24:59;99713.03;;;14.72;91.94
42289;BME280;30230;47.520;19.016;2023-08-12T02:27:00;99719.13;;;14.68;92.45
42289;BME280;30230;47.520;19.016;2023-08-12T02:29:00;99711.19;;;14.66;92.91
42289;BME280;30230;47.520;19.016;2023-08-12T02:31:01;99711.41;;;14.65;92.96
42289;BME280;30230;47.520;19.016;2023-08-12T02:33:02;99712.84;;;14.67;93.20
42289;BME280;30230;47.520;19.016;2023-08-12T02:35:02;99715.97;;;14.71;93.82
42289;BME280;30230;47.520;19.016;2023-08-12T02:37:03;99712.66;;;14.69;93.55
42289;BME280;30230;47.520;19.016;2023-08-12T02:39:03;99708.69;;;14.65;93.73
42289;BME280;30230;47.520;19.016;2023-08-12T02:41:04;99714.75;;;14.67;93.18
42289;BME280;30230;47.520;19.016;2023-08-12T02:43:05;99711.59;;;14.70;93.93
42289;BME280;30230;47.520;19.016;2023-08-12T02:45:05;99716.19;;;14.69;93.20
42289;BME280;30230;47.520;19.016;2023-08-12T02:47:06;99713.69;;;14.68;94.25
42289;BME280;30230;47.520;19.016;2023-08-12T02:49:06;99706.59;;;14.67;93.71
42289;BME280;30230;47.520;19.016;2023-08-12T02:51:07;99711.59;;;14.70;93.37
42289;BME280;30230;47.520;19.016;2023-08-12T02:53:07;99709.88;;;14.75;92.09
42289;BME280;30230;47.520;19.016;2023-08-12T02:55:08;99704.66;;;14.74;93.75
42289;BME280;30230;47.520;19.016;2023-08-12T02:57:08;99711.13;;;14.79;93.47
42289;BME280;30230;47.520;19.016;2023-08-12T02:59:09;99712.34;;;14.83;92.49
42289;BME280;30230;47.520;19.016;2023-08-12T03:01:09;99706.50;;;14.80;94.02
42289;BME280;30230;47.520;19.016;2023-08-12T03:03:10;99702.72;;;14.81;94.43
42289;BME280;30230;47.520;19.016;2023-08-12T03:05:10;99713.38;;;14.82;93.96
42289;BME280;30230;47.520;19.016;2023-08-12T03:07:11;99704.44;;;14.75;92.98
42289;BME280;30230;47.520;19.016;2023-08-12T03:09:11;99704.00;;;14.78;92.88
42289;BME280;30230;47.520;19.016;2023-08-12T03:11:11;99705.38;;;14.88;92.01
42289;BME280;30230;47.520;19.016;2023-08-12T03:13:12;99709.78;;;14.89;91.39
42289;BME280;30230;47.520;19.016;2023-08-12T03:15:13;99708.41;;;14.79;92.75
42289;BME280;30230;47.520;19.016;2023-08-12T03:17:14;99706.72;;;14.78;90.87
42289;BME280;30230;47.520;19.016;2023-08-12T03:19:14;99711.78;;;14.75;90.90
42289;BME280;30230;47.520;19.016;2023-08-12T03:21:15;99708.16;;;14.81;90.41
42289;BME280;30230;47.520;19.016;2023-08-12T03:23:15;99712.16;;;14.78;90.38
42289;BME280;30230;47.520;19.016;2023-08-12T03:25:16;99709.72;;;14.70;91.43
42289;BME280;30230;47.520;19.016;2023-08-12T03:27:17;99709.44;;;14.78;92.04
42289;BME280;30230;47.520;19.016;2023-08-12T03:29:17;99710.28;;;14.79;90.95
42289;BME280;30230;47.520;19.016;2023-08-12T03:31:17;99708.66;;;14.71;92.34
42289;BME280;30230;47.520;19.016;2023-08-12T03:33:18;99716.19;;;14.69;91.50
42289;BME280;30230;47.520;19.016;2023-08-12T03:35:19;99711.47;;;14.58;91.77
42289;BME280;30230;47.520;19.016;2023-08-12T03:37:19;99714.19;;;14.58;91.47
42289;BME280;30230;47.520;19.016;2023-08-12T03:39:20;99704.97;;;14.59;91.82
42289;BME280;30230;47.520;19.016;2023-08-12T03:41:20;99718.75;;;14.64;93.38
42289;BME280;30230;47.520;19.016;2023-08-12T03:43:22;99725.84;;;14.65;94.31
42289;BME280;30230;47.520;19.016;2023-08-12T03:45:22;99726.50;;;14.61;91.21
42289;BME280;30230;47.520;19.016;2023-08-12T03:47:23;99734.66;;;14.61;91.56
42289;BME280;30230;47.520;19.016;2023-08-12T03:49:24;99731.69;;;14.62;93.08
42289;BME280;30230;47.520;19.016;2023-08-12T03:51:25;99732.53;;;14.69;91.89
42289;BME280;30230;47.520;19.016;2023-08-12T03:53:25;99719.97;;;14.68;91.33
42289;BME280;30230;47.520;19.016;2023-08-12T03:55:25;99732.06;;;14.72;90.49
42289;BME280;30230;47.520;19.016;2023-08-12T03:57:26;99721.19;;;14.72;92.62
42289;BME280;30230;47.520;19.016;2023-08-12T03:59:26;99729.91;;;14.81;91.51
42289;BME280;30230;47.520;19.016;2023-08-12T04:01:27;99726.38;;;14.80;91.03
42289;BME280;30230;47.520;19.016;2023-08-12T04:03:27;99721.16;;;14.79;91.41
42289;BME280;30230;47.520;19.016;2023-08-12T04:05:28;99731.81;;;14.80;92.00
42289;BME280;30230;47.520;19.016;2023-08-12T04:07:28;99734.47;;;14.87;92.51
42289;BME280;30230;47.520;19.016;2023-08-12T04:09:28;99734.28;;;14.89;91.64
42289;BME280;30230;47.520;19.016;2023-08-12T04:11:29;99731.97;;;14.85;93.40
42289;BME280;30230;47.520;19.016;2023-08-12T04:13:29;99726.97;;;14.82;92.94
42289;BME280;30230;47.520;19.016;2023-08-12T04:15:30;99735.59;;;14.79;93.31
42289;BME280;30230;47.520;19.016;2023-08-12T04:17:30;99727.63;;;14.78;93.24
42289;BME280;30230;47.520;19.016;2023-08-12T04:19:31;99732.41;;;14.82;92.72
42289;BME280;30230;47.520;19.016;2023-08-12T04:21:31;99740.75;;;14.88;92.59
42289;BME280;30230;47.520;19.016;2023-08-12T04:23:32;99734.09;;;14.83;93.56
42289;BME280;30230;47.520;19.016;2023-08-12T04:25:32;99739.66;;;14.95;93.26
42289;BME280;30230;47.520;19.016;2023-08-12T04:27:33;99742.56;;;15.00;93.25
42289;BME280;30230;47.520;19.016;2023-08-12T04:29:34;99736.28;;;15.00;94.12
42289;BME280;30230;47.520;19.016;2023-08-12T04:31:35;99722.28;;;14.96;94.33
42289;BME280;30230;47.520;19.016;2023-08-12T04:33:35;99748.94;;;15.13;95.32
42289;BME280;30230;47.520;19.016;2023-08-12T04:35:35;99750.41;;;15.15;94.58
42289;BME280;30230;47.520;19.016;2023-08-12T04:37:36;99748.28;;;15.17;95.01
42289;BME280;30230;47.520;19.016;2023-08-12T04:39:36;99756.59;;;15.22;96.07
42289;BME280;30230;47.520;19.016;2023-08-12T04:41:37;99750.56;;;15.20;95.21
42289;BME280;30230;47.520;19.016;2023-08-12T04:43:38;99753.81;;;15.29;96.00
42289;BME280;30230;47.520;19.016;2023-08-12T04:45:38;99745.66;;;15.29;94.76
42289;BME280;30230;47.520;19.016;2023-08-12T04:47:39;99756.50;;;15.35;96.22
42289;BME280;30230;47.520;19.016;2023-08-12T04:49:39;99750.75;;;15.44;94.64
42289;BME280;30230;47.520;19.016;2023-08-12T04:51:40;99757.44;;;15.48;94.47
42289;BME280;30230;47.520;19.016;2023-08-12T04:53:40;99746.97;;;15.45;94.83
42289;BME280;30230;47.520;19.016;2023-08-12T04:55:41;99752.81;;;15.48;94.11
42289;BME280;30230;47.520;19.016;2023-08-12T04:57:41;99739.03;;;15.43;94.20
42289;BME280;30230;47.520;19.016;2023-08-12T04:59:42;99759.25;;;15.54;94.90
42289;BME280;30230;47.520;19.016;2023-08-12T05:01:42;99756.94;;;15.57;95.72
42289;BME280;30230;47.520;19.016;2023-08-12T05:03:42;99762.75;;;15.61;96.01
42289;BME280;30230;47.520;19.016;2023-08-12T05:05:43;99746.88;;;15.58;96.72
42289;BME280;30230;47.520;19.016;2023-08-12T05:07:43;99760.44;;;15.65;96.39
42289;BME280;30230;47.520;19.016;2023-08-12T05:09:45;99751.44;;;15.64;97.77
42289;BME280;30230;47.520;19.016;2023-08-12T05:11:45;99749.25;;;15.73;98.35
42289;BME280;30230;47.520;19.016;2023-08-12T05:13:46;99755.06;;;15.76;99.15
42289;BME280;30230;47.520;19.016;2023-08-12T05:15:47;99745.88;;;15.77;99.58
42289;BME280;30230;47.520;19.016;2023-08-12T05:17:47;99758.97;;;15.87;100.00
42289;BME280;30230;47.520;19.016;2023-08-12T05:19:48;99748.91;;;15.87;100.00
42289;BME280;30230;47.520;19.016;2023-08-12T05:21:48;99751.00;;;15.85;99.07
42289;BME280;30230;47.520;19.016;2023-08-12T05:23:48;99765.56;;;15.98;98.69
42289;BME280;30230;47.520;19.016;2023-08-12T05:25:49;99755.63;;;16.03;96.93
42289;BME280;30230;47.520;19.016;2023-08-12T05:27:50;99752.69;;;16.05;96.07
42289;BME280;30230;47.520;19.016;2023-08-12T05:29:50;99769.91;;;16.17;95.79
42289;BME280;30230;47.520;19.016;2023-08-12T05:31:50;99759.56;;;16.26;93.68
42289;BME280;30230;47.520;19.016;2023-08-12T05:33:51;99751.22;;;16.21;94.14
42289;BME280;30230;47.520;19.016;2023-08-12T05:35:51;99759.94;;;16.29;93.19
42289;BME280;30230;47.520;19.016;2023-08-12T05:37:52;99756.06;;;16.37;92.43
42289;BME280;30230;47.520;19.016;2023-08-12T05:39:52;99739.41;;;16.27;92.90
42289;BME280;30230;47.520;19.016;2023-08-12T05:41:52;99744.22;;;16.43;91.40
42289;BME280;30230;47.520;19.016;2023-08-12T05:43:53;99742.94;;;16.46;88.87
42289;BME280;30230;47.520;19.016;2023-08-12T05:45:53;99753.16;;;16.50;88.92
42289;BME280;30230;47.520;19.016;2023-08-12T05:47:54;99748.06;;;16.72;84.67
42289;BME280;30230;47.520;19.016;2023-08-12T05:49:54;99756.13;;;16.79;83.61
42289;BME280;30230;47.520;19.016;2023-08-12T05:51:55;99741.22;;;16.81;83.39
42289;BME280;30230;47.520;19.016;2023-08-12T05:53:55;99755.72;;;16.93;82.42
42289;BME280;30230;47.520;19.016;2023-08-12T05:55:56;99758.94;;;16.90;82.70
42289;BME280;30230;47.520;19.016;2023-08-12T05:57:56;99754.31;;;17.03;82.03
42289;BME280;30230;47.520;19.016;2023-08-12T05:59:56;99757.44;;;17.06;81.39
42289;BME280;30230;47.520;19.016;2023-08-12T06:01:57;99747.91;;;17.09;80.52
42289;BME280;30230;47.520;19.016;2023-08-12T06:03:57;99753.25;;;17.15;80.90
42289;BME280;30230;47.520;19.016;2023-08-12T06:05:57;99755.41;;;17.25;80.46
42289;BME280;30230;47.520;19.016;2023-08-12T06:07:58;99738.34;;;17.18;79.79
42289;BME280;30230;47.520;19.016;2023-08-12T06:09:59;99748.09;;;17.37;79.44
42289;BME280;30230;47.520;19.016;2023-08-12T06:12:00;99747.34;;;17.30;78.44
42289;BME280;30230;47.520;19.016;2023-08-12T06:14:00;99755.34;;;17.43;77.76
42289;BME280;30230;47.520;19.016;2023-08-12T06:16:00;99752.72;;;17.49;77.71
42289;BME280;30230;47.520;19.016;2023-08-12T06:18:02;99762.69;;;17.55;78.10
42289;BME280;30230;47.520;19.016;2023-08-12T06:20:03;99758.56;;;17.64;77.99
42289;BME280;30230;47.520;19.016;2023-08-12T06:22:03;99751.66;;;17.61;77.43
42289;BME280;30230;47.520;19.016;2023-08-12T06:24:04;99742.84;;;17.71;75.98
42289;BME280;30230;47.520;19.016;2023-08-12T06:26:04;99760.34;;;17.82;76.12
42289;BME280;30230;47.520;19.016;2023-08-12T06:28:05;99749.66;;;17.80;76.73
42289;BME280;30230;47.520;19.016;2023-08-12T06:30:06;99735.75;;;17.82;74.97
42289;BME280;30230;47.520;19.016;2023-08-12T06:32:06;99753.31;;;17.98;73.63
42289;BME280;30230;47.520;19.016;2023-08-12T06:34:07;99748.44;;;18.00;73.20
42289;BME280;30230;47.520;19.016;2023-08-12T06:36:07;99750.78;;;18.08;73.68
42289;BME280;30230;47.520;19.016;2023-08-12T06:38:08;99746.38;;;18.18;71.35
42289;BME280;30230;47.520;19.016;2023-08-12T06:40:10;99754.56;;;18.30;72.73
42289;BME280;30230;47.520;19.016;2023-08-12T06:42:10;99756.44;;;18.41;72.71
42289;BME280;30230;47.520;19.016;2023-08-12T06:44:11;99745.97;;;18.38;71.69
42289;BME280;30230;47.520;19.016;2023-08-12T06:46:12;99734.66;;;18.46;70.97
42289;BME280;30230;47.520;19.016;2023-08-12T06:48:12;99742.44;;;18.55;71.10
42289;BME280;30230;47.520;19.016;2023-08-12T06:50:12;99743.88;;;18.57;70.74
42289;BME280;30230;47.520;19.016;2023-08-12T06:52:13;99746.59;;;18.69;70.94
42289;BME280;30230;47.520;19.016;2023-08-12T06:54:14;99742.75;;;18.82;70.43
42289;BME280;30230;47.520;19.016;2023-08-12T06:56:14;99741.31;;;18.96;69.92
42289;BME280;30230;47.520;19.016;2023-08-12T06:58:14;99754.72;;;19.09;68.42
42289;BME280;30230;47.520;19.016;2023-08-12T07:00:15;99741.94;;;19.15;67.82
42289;BME280;30230;47.520;19.016;2023-08-12T07:02:15;99759.72;;;19.29;67.56
42289;BME280;30230;47.520;19.016;2023-08-12T07:04:16;99756.97;;;19.29;66.65
42289;BME280;30230;47.520;19.016;2023-08-12T07:06:16;99757.63;;;19.36;66.70
42289;BME280;30230;47.520;19.016;2023-08-12T07:08:16;99760.34;;;19.53;64.32
42289;BME280;30230;47.520;19.016;2023-08-12T07:10:17;99764.44;;;19.67;65.12
42289;BME280;30230;47.520;19.016;2023-08-12T07:12:17;99763.28;;;19.80;65.63
42289;BME280;30230;47.520;19.016;2023-08-12T07:14:17;99751.84;;;19.88;64.34
42289;BME280;30230;47.520;19.016;2023-08-12T07:16:18;99757.00;;;20.01;63.97
42289;BME280;30230;47.520;19.016;2023-08-12T07:18:18;99758.84;;;20.18;62.45
42289;BME280;30230;47.520;19.016;2023-08-12T07:20:19;99739.19;;;20.26;63.23
42289;BME280;30230;47.520;19.016;2023-08-12T07:22:19;99754.03;;;20.47;61.95
42289;BME280;30230;47.520;19.016;2023-08-12T07:24:20;99753.25;;;20.51;59.83
42289;BME280;30230;47.520;19.016;2023-08-12T07:26:21;99751.81;;;20.71;59.35
42289;BME280;30230;47.520;19.016;2023-08-12T07:28:21;99746.31;;;20.71;59.15
42289;BME280;30230;47.520;19.016;2023-08-12T07:30:22;99749.56;;;20.90;57.13
42289;BME280;30230;47.520;19.016;2023-08-12T07:32:22;99744.44;;;21.03;55.47
42289;BME280;30230;47.520;19.016;2023-08-12T07:34:23;99736.53;;;21.07;57.77
42289;BME280;30230;47.520;19.016;2023-08-12T07:36:23;99760.59;;;21.27;57.11
42289;BME280;30230;47.520;19.016;2023-08-12T07:38:23;99744.94;;;21.27;58.02
42289;BME280;30230;47.520;19.016;2023-08-12T07:40:24;99749.28;;;21.50;56.86
42289;BME280;30230;47.520;19.016;2023-08-12T07:42:24;99759.03;;;21.68;56.95
42289;BME280;30230;47.520;19.016;2023-08-12T07:44:25;99743.31;;;21.64;56.25
42289;BME280;30230;47.520;19.016;2023-08-12T07:46:25;99758.28;;;21.83;56.31
42289;BME280;30230;47.520;19.016;2023-08-12T07:48:26;99756.75;;;21.97;57.92
42289;BME280;30230;47.520;19.016;2023-08-12T07:50:26;99759.63;;;22.18;55.62
42289;BME280;30230;47.520;19.016;2023-08-12T07:52:26;99753.03;;;22.24;54.51
42289;BME280;30230;47.520;19.016;2023-08-12T07:54:29;99738.53;;;22.39;54.99
42289;BME280;30230;47.520;19.016;2023-08-12T07:56:30;99719.81;;;22.41;55.46
42289;BME280;30230;47.520;19.016;2023-08-12T07:58:30;99745.75;;;22.65;54.20
42289;BME280;30230;47.520;19.016;2023-08-12T08:00:32;99744.13;;;22.74;55.27
42289;BME280;30230;47.520;19.016;2023-08-12T08:02:33;99744.44;;;22.88;55.40
42289;BME280;30230;47.520;19.016;2023-08-12T08:04:34;99741.72;;;23.03;53.51
42289;BME280;30230;47.520;19.016;2023-08-12T08:06:34;99747.22;;;23.08;53.88
42289;BME280;30230;47.520;19.016;2023-08-12T08:08:34;99739.50;;;23.21;53.95
42289;BME280;30230;47.520;19.016;2023-08-12T08:10:35;99744.78;;;23.37;53.39
42289;BME280;30230;47.520;19.016;2023-08-12T08:12:35;99745.03;;;23.46;54.57
42289;BME280;30230;47.520;19.016;2023-08-12T08:14:36;99739.25;;;23.58;52.05
42289;BME280;30230;47.520;19.016;2023-08-12T08:16:37;99743.38;;;23.65;52.98
42289;BME280;30230;47.520;19.016;2023-08-12T08:18:40;99744.19;;;23.76;52.74
42289;BME280;30230;47.520;19.016;2023-08-12T08:20:42;99744.72;;;23.88;53.79
42289;BME280;30230;47.520;19.016;2023-08-12T08:22:43;99745.22;;;24.06;50.83
42289;BME280;30230;47.520;19.016;2023-08-12T08:24:43;99750.44;;;24.12;50.62
42289;BME280;30230;47.520;19.016;2023-08-12T08:26:44;99745.47;;;24.14;52.41
42289;BME280;30230;47.520;19.016;2023-08-12T08:28:47;99745.47;;;24.20;50.62
42289;BME280;30230;47.520;19.016;2023-08-12T08:30:47;99746.25;;;24.30;49.92
42289;BME280;30230;47.520;19.016;2023-08-12T08:32:48;99748.16;;;24.40;51.02
42289;BME280;30230;47.520;19.016;2023-08-12T08:34:48;99750.63;;;24.47;52.26
42289;BME280;30230;47.520;19.016;2023-08-12T08:36:50;99743.66;;;24.54;50.20
42289;BME280;30230;47.520;19.016;2023-08-12T08:38:50;99746.91;;;24.72;51.99
42289;BME280;30230;47.520;19.016;2023-08-12T08:40:51;99747.41;;;24.79;49.82
42289;BME280;30230;47.520;19.016;2023-08-12T08:42:52;99745.06;;;24.96;49.54
42289;BME280;30230;47.520;19.016;2023-08-12T08:44:55;99735.69;;;24.97;49.68
42289;BME280;30230;47.520;19.016;2023-08-12T08:47:01;99729.00;;;25.08;48.20
42289;BME280;30230;47.520;19.016;2023-08-12T08:49:02;99741.69;;;25.04;47.24
42289;BME280;30230;47.520;19.016;2023-08-12T08:51:03;99729.25;;;25.07;49.31
42289;BME280;30230;47.520;19.016;2023-08-12T08:53:06;99730.91;;;25.13;50.10
42289;BME280;30230;47.520;19.016;2023-08-12T08:55:06;99749.78;;;25.35;48.26
42289;BME280;30230;47.520;19.016;2023-08-12T08:57:08;99741.09;;;25.46;48.47
42289;BME280;30230;47.520;19.016;2023-08-12T08:59:09;99739.16;;;25.47;48.03
42289;BME280;30230;47.520;19.016;2023-08-12T09:01:10;99740.25;;;25.51;47.98
42289;BME280;30230;47.520;19.016;2023-08-12T09:03:11;99738.00;;;25.53;48.45
42289;BME280;30230;47.520;19.016;2023-08-12T09:05:14;99735.81;;;25.50;48.64
42289;BME280;30230;47.520;19.016;2023-08-12T09:07:15;99732.50;;;25.48;49.46
42289;BME280;30230;47.520;19.016;2023-08-12T09:09:17;99731.06;;;25.56;49.18
42289;BME280;30230;47.520;19.016;2023-08-12T09:11:20;99745.63;;;25.66;49.38
42289;BME280;30230;47.520;19.016;2023-08-12T09:13:20;99733.97;;;25.75;48.08
42289;BME280;30230;47.520;19.016;2023-08-12T09:15:21;99733.75;;;25.95;48.42
42289;BME280;30230;47.520;19.016;2023-08-12T09:17:21;99730.72;;;25.91;47.73
42289;BME280;30230;47.520;19.016;2023-08-12T09:19:22;99721.38;;;26.11;47.31
42289;BME280;30230;47.520;19.016;2023-08-12T09:21:23;99736.06;;;26.31;47.18
42289;BME280;30230;47.520;19.016;2023-08-12T09:23:23;99727.38;;;26.18;44.82
42289;BME280;30230;47.520;19.016;2023-08-12T09:25:29;99723.06;;;26.31;44.66
42289;BME280;30230;47.520;19.016;2023-08-12T09:27:31;99720.75;;;26.38;45.71
42289;BME280;30230;47.520;19.016;2023-08-12T09:29:33;99721.94;;;26.32;44.78
42289;BME280;30230;47.520;19.016;2023-08-12T09:31:34;99726.44;;;26.52;47.52
42289;BME280;30230;47.520;19.016;2023-08-12T09:33:40;99724.47;;;26.53;45.47
42289;BME280;30230;47.520;19.016;2023-08-12T09:35:40;99722.31;;;26.68;44.73
42289;BME280;30230;47.520;19.016;2023-08-12T09:37:41;99718.34;;;26.74;44.92
42289;BME280;30230;47.520;19.016;2023-08-12T09:39:42;99717.88;;;26.86;44.88
42289;BME280;30230;47.520;19.016;2023-08-12T09:41:42;99723.88;;;26.93;45.91
42289;BME280;30230;47.520;19.016;2023-08-12T09:43:43;99717.78;;;26.91;44.34
42289;BME280;30230;47.520;19.016;2023-08-12T09:45:44;99709.25;;;27.07;44.92
42289;BME280;30230;47.520;19.016;2023-08-12T09:47:45;99710.84;;;27.13;44.31
42289;BME280;30230;47.520;19.016;2023-08-12T09:49:46;99709.34;;;27.34;44.16
42289;BME280;30230;47.520;19.016;2023-08-12T09:51:46;99704.66;;;27.35;42.15
42289;BME280;30230;47.520;19.016;2023-08-12T09:53:48;99701.16;;;27.43;41.59
42289;BME280;30230;47.520;19.016;2023-08-12T09:55:50;99700.16;;;27.52;41.47
42289;BME280;30230;47.520;19.016;2023-08-12T09:57:54;99714.69;;;27.63;42.55
42289;BME280;30230;47.520;19.016;2023-08-12T09:59:55;99703.47;;;27.68;41.94
42289;BME280;30230;47.520;19.016;2023-08-12T10:01:58;99708.00;;;27.64;42.09
42289;BME280;30230;47.520;19.016;2023-08-12T10:03:59;99700.94;;;27.72;41.04
42289;BME280;30230;47.520;19.016;2023-08-12T10:06:00;99697.88;;;27.73;41.97
42289;BME280;30230;47.520;19.016;2023-08-12T10:08:01;99693.28;;;27.64;41.10
42289;BME280;30230;47.520;19.016;2023-08-12T10:10:04;99693.25;;;27.83;39.70
42289;BME280;30230;47.520;19.016;2023-08-12T10:12:06;99699.31;;;27.98;40.03
42289;BME280;30230;47.520;19.016;2023-08-12T10:14:08;99696.22;;;28.00;41.18
42289;BME280;30230;47.520;19.016;2023-08-12T10:16:09;99687.88;;;28.00;38.72
42289;BME280;30230;47.520;19.016;2023-08-12T10:18:10;99679.16;;;27.79;41.52
42289;BME280;30230;47.520;19.016;2023-08-12T10:20:12;99688.59;;;28.06;42.00
42289;BME280;30230;47.520;19.016;2023-08-12T10:22:13;99690.78;;;28.22;40.46
42289;BME280;30230;47.520;19.016;2023-08-12T10:24:16;99692.72;;;28.36;40.85
42289;BME280;30230;47.520;19.016;2023-08-12T10:26:17;99681.72;;;28.44;41.34
42289;BME280;30230;47.520;19.016;2023-08-12T10:28:19;99677.41;;;28.38;40.29
42289;BME280;30230;47.520;19.016;2023-08-12T10:30:20;99680.84;;;28.58;37.85
42289;BME280;30230;47.520;19.016;2023-08-12T10:32:21;99678.06;;;28.58;39.25
42289;BME280;30230;47.520;19.016;2023-08-12T10:34:24;99679.16;;;28.70;39.34